createdAt,value
2018-08-28T04:00:56.697Z,84.19
2018-08-28T04:01:56.570Z,84.19
2018-08-28T04:03:49.348Z,83.81
2018-08-28T04:04:49.154Z,83.91
2018-08-28T04:06:41.828Z,83.91
2018-08-28T04:07:41.729Z,83.91
2018-08-28T04:09:34.419Z,83.81
2018-08-28T04:10:34.294Z,84.09
2018-08-28T04:12:27.125Z,84.28
2018-08-28T04:13:26.874Z,84.48
2018-08-28T04:15:19.557Z,84.28
2018-08-28T04:16:19.431Z,83.91
2018-08-28T04:18:12.117Z,84.00
2018-08-28T04:19:12.012Z,83.91
2018-08-28T04:21:04.711Z,84.09
2018-08-28T04:22:04.586Z,84.19
2018-08-28T04:23:57.281Z,83.91
2018-08-28T04:24:57.199Z,84.09
2018-08-28T04:26:49.860Z,84.00
2018-08-28T04:27:49.741Z,84.09
2018-08-28T04:29:42.566Z,84.19
2018-08-28T04:30:42.362Z,84.19
2018-08-28T04:32:35.002Z,83.91
2018-08-28T04:33:34.881Z,84.00
2018-08-28T04:35:27.588Z,84.00
2018-08-28T04:36:27.453Z,84.28
2018-08-28T04:38:20.146Z,84.58
2018-08-28T04:39:20.048Z,84.09
2018-08-28T04:41:12.703Z,84.28
2018-08-28T04:42:12.591Z,84.00
2018-08-28T04:44:05.285Z,84.09
2018-08-28T04:45:05.161Z,84.58
2018-08-28T04:46:57.835Z,83.91
2018-08-28T04:47:57.733Z,83.61
2018-08-28T04:49:50.434Z,84.48
2018-08-28T04:50:50.309Z,84.09
2018-08-28T04:52:42.991Z,84.19
2018-08-28T04:53:42.890Z,84.09
2018-08-28T04:55:36.082Z,84.09
2018-08-28T04:56:35.963Z,84.19
2018-08-28T04:58:28.659Z,83.71
2018-08-28T04:59:28.537Z,84.19
2018-08-28T05:01:21.214Z,84.38
2018-08-28T05:02:21.110Z,84.19
2018-08-28T05:04:13.806Z,83.91
2018-08-28T05:05:13.687Z,84.38
2018-08-28T05:07:06.876Z,84.09
2018-08-28T05:08:06.760Z,84.09
2018-08-28T05:09:59.453Z,83.81
2018-08-28T05:10:59.338Z,84.38
2018-08-28T05:12:52.021Z,83.81
2018-08-28T05:13:51.910Z,83.52
2018-08-28T05:15:44.664Z,83.91
2018-08-28T05:16:44.488Z,83.81
2018-08-28T05:18:37.171Z,83.61
2018-08-28T05:19:37.062Z,83.42
2018-08-28T05:21:29.852Z,84.19
2018-08-28T05:22:29.638Z,84.00
2018-08-28T05:24:22.313Z,83.81
2018-08-28T05:25:22.214Z,83.71
2018-08-28T05:27:14.914Z,83.27
2018-08-28T05:28:14.784Z,83.33
2018-08-28T05:30:07.465Z,83.33
2018-08-28T05:31:07.356Z,83.71
2018-08-28T05:33:00.050Z,84.04
2018-08-28T05:33:59.926Z,84.14
2018-08-28T05:35:52.753Z,83.47
2018-08-28T05:36:52.496Z,83.47
2018-08-28T05:38:45.183Z,83.18
2018-08-28T05:39:45.067Z,83.37
2018-08-28T05:41:37.749Z,83.08
2018-08-28T05:42:37.641Z,83.65
2018-08-28T05:44:30.337Z,83.47
2018-08-28T05:45:30.341Z,83.18
2018-08-28T05:47:22.901Z,83.56
2018-08-28T05:48:22.795Z,83.47
2018-08-28T05:50:15.491Z,83.18
2018-08-28T05:51:15.366Z,83.18
2018-08-28T05:53:08.049Z,82.51
2018-08-28T05:54:07.954Z,82.51
2018-08-28T05:56:00.710Z,82.07
2018-08-28T05:57:00.532Z,81.87
2018-08-28T05:58:53.245Z,82.12
2018-08-28T05:59:53.111Z,82.16
2018-08-28T06:01:45.798Z,82.16
2018-08-28T06:02:45.688Z,81.10
2018-08-28T06:04:38.660Z,81.59
2018-08-28T06:05:38.542Z,81.59
2018-08-28T06:07:31.240Z,81.97
2018-08-28T06:08:31.120Z,82.16
2018-08-28T06:10:23.890Z,81.20
2018-08-28T06:11:23.778Z,81.78
2018-08-28T06:13:16.433Z,81.01
2018-08-28T06:14:16.335Z,81.10
2018-08-28T06:16:09.035Z,81.01
2018-08-28T06:17:08.909Z,80.73
2018-08-28T06:19:01.593Z,81.01
2018-08-28T06:20:01.488Z,81.01
2018-08-28T06:21:54.191Z,80.24
2018-08-28T06:22:54.080Z,80.34
2018-08-28T06:24:46.750Z,81.01
2018-08-28T06:25:46.642Z,81.10
2018-08-28T06:27:39.349Z,80.38
2018-08-28T06:28:39.276Z,80.66
2018-08-28T06:30:31.907Z,80.28
2018-08-28T06:31:31.803Z,80.38
2018-08-28T06:33:24.523Z,80.09
2018-08-28T06:34:24.382Z,80.38
2018-08-28T06:36:17.071Z,80.38
2018-08-28T06:37:16.969Z,80.57
2018-08-28T06:39:09.663Z,80.47
2018-08-28T06:40:09.547Z,80.57
2018-08-28T06:42:02.234Z,80.38
2018-08-28T06:43:02.124Z,80.57
2018-08-28T06:44:54.824Z,80.47
2018-08-28T06:45:54.701Z,80.19
2018-08-28T06:47:47.382Z,79.71
2018-08-28T06:48:47.286Z,79.42
2018-08-28T06:50:40.126Z,79.99
2018-08-28T06:51:39.848Z,80.22
2018-08-28T06:53:32.535Z,79.84
2018-08-28T06:54:32.431Z,79.84
2018-08-28T06:56:25.134Z,79.94
2018-08-28T06:57:25.023Z,79.65
2018-08-28T06:59:17.677Z,79.65
2018-08-28T07:00:17.585Z,79.27
2018-08-28T07:02:10.275Z,78.98
2018-08-28T07:03:10.154Z,79.46
2018-08-28T07:05:02.836Z,79.46
2018-08-28T07:06:02.726Z,79.75
2018-08-28T07:07:55.442Z,79.65
2018-08-28T07:08:55.322Z,79.55
2018-08-28T07:10:48.011Z,79.75
2018-08-28T07:11:47.888Z,79.36
2018-08-28T07:13:40.627Z,79.46
2018-08-28T07:14:40.504Z,79.02
2018-08-28T07:16:33.155Z,78.11
2018-08-28T07:17:33.110Z,78.59
2018-08-28T07:19:25.765Z,77.76
2018-08-28T07:20:25.648Z,78.44
2018-08-28T07:22:18.385Z,77.38
2018-08-28T07:23:18.229Z,77.48
2018-08-28T07:25:10.920Z,78.25
2018-08-28T07:26:10.868Z,78.50
2018-08-28T07:28:03.640Z,78.88
2018-08-28T07:29:03.388Z,78.53
2018-08-28T07:30:56.109Z,78.73
2018-08-28T07:31:56.046Z,79.02
2018-08-28T07:33:48.648Z,78.53
2018-08-28T07:34:48.548Z,78.15
2018-08-28T07:36:41.259Z,77.86
2018-08-28T07:37:41.145Z,78.53
2018-08-28T07:39:33.843Z,77.67
2018-08-28T07:40:33.713Z,77.76
2018-08-28T07:42:26.417Z,77.61
2018-08-28T07:43:26.291Z,77.67
2018-08-28T07:45:18.983Z,77.51
2018-08-28T07:46:18.876Z,77.23
2018-08-28T07:48:11.596Z,78.53
2018-08-28T07:49:11.460Z,78.53
2018-08-28T07:51:04.139Z,77.86
2018-08-28T07:52:04.040Z,77.23
2018-08-28T07:53:56.759Z,76.46
2018-08-28T07:54:56.628Z,77.04
2018-08-28T07:56:49.298Z,77.51
2018-08-28T07:57:49.198Z,77.33
2018-08-28T07:59:41.936Z,76.56
2018-08-28T08:00:41.849Z,76.21
2018-08-28T08:02:34.503Z,75.44
2018-08-28T08:03:34.358Z,74.90
2018-08-28T08:05:27.047Z,74.71
2018-08-28T08:06:26.939Z,73.94
2018-08-28T08:08:19.642Z,74.03
2018-08-28T08:09:19.523Z,74.22
2018-08-28T08:11:12.227Z,73.36
2018-08-28T08:12:12.107Z,73.74
2018-08-28T08:14:04.816Z,73.26
2018-08-28T08:15:04.706Z,73.10
2018-08-28T08:16:57.382Z,71.76
2018-08-28T08:17:57.272Z,71.95
2018-08-28T08:19:49.971Z,71.41
2018-08-28T08:20:49.860Z,71.41
2018-08-28T08:22:42.545Z,70.25
2018-08-28T08:23:42.450Z,70.19
2018-08-28T08:25:35.147Z,69.71
2018-08-28T08:26:35.026Z,70.15
2018-08-28T08:28:27.716Z,70.09
2018-08-28T08:29:27.613Z,69.57
2018-08-28T08:31:20.324Z,70.28
2018-08-28T08:32:20.201Z,69.71
2018-08-28T08:34:13.057Z,69.23
2018-08-28T08:35:12.820Z,68.59
2018-08-28T08:37:05.504Z,67.71
2018-08-28T08:38:05.383Z,66.88
2018-08-28T08:39:58.085Z,66.78
2018-08-28T08:40:57.976Z,66.88
2018-08-28T08:42:50.708Z,66.78
2018-08-28T08:43:50.605Z,67.17
2018-08-28T08:45:43.280Z,67.46
2018-08-28T08:46:43.169Z,67.27
2018-08-28T08:48:35.857Z,69.13
2018-08-28T08:49:35.761Z,69.80
2018-08-28T08:51:28.486Z,68.74
2018-08-28T08:52:28.367Z,69.51
2018-08-28T08:54:21.061Z,70.00
2018-08-28T08:55:20.957Z,70.00
2018-08-28T08:57:13.689Z,69.16
2018-08-28T08:58:13.557Z,68.97
2018-08-28T09:00:06.253Z,67.91
2018-08-28T09:01:06.149Z,67.27
2018-08-28T09:02:58.878Z,66.20
2018-08-28T09:03:58.753Z,66.05
2018-08-28T09:05:51.476Z,65.85
2018-08-28T09:06:51.355Z,65.75
2018-08-28T09:08:44.057Z,65.75
2018-08-28T09:09:43.937Z,65.75
2018-08-28T09:11:36.631Z,64.59
2018-08-28T09:12:36.532Z,64.63
2018-08-28T09:14:29.240Z,65.47
2018-08-28T09:15:29.228Z,65.37
2018-08-28T09:17:21.893Z,65.43
2018-08-28T09:18:21.702Z,66.30
2018-08-28T09:20:14.420Z,66.40
2018-08-28T09:21:14.311Z,66.14
2018-08-28T09:23:06.998Z,64.43
2018-08-28T09:24:06.905Z,64.53
2018-08-28T09:25:59.625Z,64.27
2018-08-28T09:26:59.513Z,63.40
2018-08-28T09:28:52.344Z,64.34
2018-08-28T09:29:52.097Z,63.47
2018-08-28T09:31:44.860Z,63.21
2018-08-28T09:32:44.713Z,63.98
2018-08-28T09:34:37.373Z,62.92
2018-08-28T09:35:37.289Z,62.95
2018-08-28T09:37:29.983Z,60.82
2018-08-28T09:38:29.919Z,61.21
2018-08-28T09:40:23.062Z,61.11
2018-08-28T09:41:22.967Z,61.40
2018-08-28T09:43:15.686Z,61.11
2018-08-28T09:44:15.652Z,61.11
2018-08-28T09:46:08.257Z,63.02
2018-08-28T09:47:08.184Z,62.34
2018-08-28T09:49:00.878Z,61.86
2018-08-28T09:50:00.761Z,61.89
2018-08-28T09:51:53.452Z,62.15
2018-08-28T09:52:53.347Z,62.82
2018-08-28T09:54:46.057Z,61.98
2018-08-28T09:55:45.942Z,60.92
2018-08-28T09:57:38.629Z,61.89
2018-08-28T09:58:38.542Z,60.37
2018-08-28T10:00:31.242Z,59.69
2018-08-28T10:01:31.124Z,60.37
2018-08-28T10:03:23.860Z,60.34
2018-08-28T10:04:23.724Z,60.34
2018-08-28T10:06:17.487Z,61.76
2018-08-28T10:07:17.363Z,62.44
2018-08-28T10:09:10.060Z,61.98
2018-08-28T10:10:09.953Z,61.66
2018-08-28T10:12:02.664Z,61.69
2018-08-28T10:13:02.543Z,60.92
2018-08-28T10:14:55.240Z,60.21
2018-08-28T10:15:55.148Z,59.92
2018-08-28T10:17:47.869Z,62.60
2018-08-28T10:18:47.755Z,62.31
2018-08-28T10:20:40.446Z,63.34
2018-08-28T10:21:40.342Z,62.76
2018-08-28T10:23:33.212Z,63.82
2018-08-28T10:24:32.946Z,63.73
2018-08-28T10:26:25.626Z,61.25
2018-08-28T10:27:25.531Z,60.67
2018-08-28T10:29:18.232Z,61.27
2018-08-28T10:30:18.176Z,61.73
2018-08-28T10:32:10.802Z,61.34
2018-08-28T10:33:10.698Z,60.96
2018-08-28T10:35:03.416Z,61.63
2018-08-28T10:36:03.300Z,61.54
2018-08-28T10:37:55.992Z,61.92
2018-08-28T10:38:55.890Z,62.40
2018-08-28T10:40:48.600Z,62.40
2018-08-28T10:41:48.478Z,62.37
2018-08-28T10:43:41.202Z,62.76
2018-08-28T10:44:41.077Z,62.95
2018-08-28T10:46:33.835Z,63.73
2018-08-28T10:47:33.666Z,63.02
2018-08-28T10:49:26.434Z,64.28
2018-08-28T10:50:26.311Z,64.24
2018-08-28T10:52:18.997Z,64.72
2018-08-28T10:53:18.899Z,64.82
2018-08-28T10:55:11.608Z,65.20
2018-08-28T10:56:11.491Z,64.72
2018-08-28T10:58:04.188Z,64.34
2018-08-28T10:59:04.080Z,64.43
2018-08-28T11:00:56.788Z,62.82
2018-08-28T11:01:56.674Z,61.77
2018-08-28T11:03:49.363Z,61.57
2018-08-28T11:04:49.268Z,60.22
2018-08-28T11:06:41.972Z,59.83
2018-08-28T11:07:41.847Z,58.77
2018-08-28T11:09:34.563Z,60.13
2018-08-28T11:10:34.447Z,60.13
2018-08-28T11:12:27.150Z,59.93
2018-08-28T11:13:27.023Z,60.16
2018-08-28T11:15:20.712Z,60.64
2018-08-28T11:16:20.604Z,60.25
2018-08-28T11:18:13.312Z,59.70
2018-08-28T11:19:13.198Z,59.70
2018-08-28T11:21:05.879Z,58.28
2018-08-28T11:22:05.779Z,56.67
2018-08-28T11:23:58.633Z,56.28
2018-08-28T11:24:58.366Z,56.18
2018-08-28T11:26:51.140Z,56.25
2018-08-28T11:27:50.972Z,56.73
2018-08-28T11:29:43.694Z,56.25
2018-08-28T11:30:43.581Z,57.48
2018-08-28T11:32:36.271Z,57.21
2018-08-28T11:33:36.191Z,57.34
2018-08-28T11:35:28.879Z,56.99
2018-08-28T11:36:28.768Z,56.63
2018-08-28T11:38:21.534Z,54.49
2018-08-28T11:39:21.391Z,55.09
2018-08-28T11:41:14.107Z,54.44
2018-08-28T11:42:13.988Z,53.28
2018-08-28T11:44:06.699Z,52.99
2018-08-28T11:45:06.572Z,53.57
2018-08-28T11:46:59.318Z,52.34
2018-08-28T11:47:59.175Z,50.48
2018-08-28T11:49:51.887Z,52.19
2018-08-28T11:50:51.800Z,52.58
2018-08-28T11:52:44.534Z,53.06
2018-08-28T11:53:44.417Z,52.02
2018-08-28T11:55:37.138Z,52.44
2018-08-28T11:56:36.955Z,52.44
2018-08-28T11:58:29.760Z,51.93
2018-08-28T11:59:29.593Z,52.67
2018-08-28T12:01:22.324Z,52.45
2018-08-28T12:02:22.216Z,52.07
2018-08-28T12:04:15.003Z,53.39
2018-08-28T12:05:15.046Z,53.78
2018-08-28T12:07:07.671Z,54.17
2018-08-28T12:08:07.511Z,54.07
2018-08-28T12:10:00.188Z,54.14
2018-08-28T12:11:00.093Z,53.97
2018-08-28T12:12:52.804Z,53.88
2018-08-28T12:13:52.685Z,54.43
2018-08-28T12:15:45.463Z,54.07
2018-08-28T12:16:45.269Z,53.59
2018-08-28T12:18:37.967Z,53.20
2018-08-28T12:19:37.902Z,52.23
2018-08-28T12:21:30.722Z,51.75
2018-08-28T12:22:30.485Z,51.07
2018-08-28T12:24:23.153Z,51.68
2018-08-28T12:25:23.056Z,49.37
2018-08-28T12:27:15.759Z,49.37
2018-08-28T12:28:15.637Z,48.79
2018-08-28T12:30:08.390Z,48.23
2018-08-28T12:31:08.327Z,48.81
2018-08-28T12:33:00.977Z,49.29
2018-08-28T12:34:00.853Z,49.87
2018-08-28T12:35:53.628Z,49.99
2018-08-28T12:36:53.643Z,49.99
2018-08-28T12:38:46.169Z,50.48
2018-08-28T12:39:46.065Z,50.67
2018-08-28T12:41:38.775Z,51.64
2018-08-28T12:42:38.666Z,51.83
2018-08-28T12:44:31.444Z,50.57
2018-08-28T12:45:31.324Z,50.38
2018-08-28T12:47:23.951Z,50.57
2018-08-28T12:48:23.849Z,50.38
2018-08-28T12:50:16.697Z,50.21
2018-08-28T12:51:16.548Z,50.21
2018-08-28T12:53:09.260Z,50.60
2018-08-28T12:54:09.096Z,49.46
2018-08-28T12:56:01.803Z,46.46
2018-08-28T12:57:01.685Z,46.29
2018-08-28T12:58:54.376Z,46.36
2018-08-28T12:59:54.345Z,47.16
2018-08-28T13:01:46.981Z,46.58
2018-08-28T13:02:46.871Z,45.71
2018-08-28T13:04:39.700Z,45.90
2018-08-28T13:05:39.465Z,45.61
2018-08-28T13:07:32.394Z,46.48
2018-08-28T13:08:32.052Z,46.39
2018-08-28T13:10:24.740Z,47.26
2018-08-28T13:11:24.643Z,47.55
2018-08-28T13:13:17.349Z,47.36
2018-08-28T13:14:17.234Z,47.36
2018-08-28T13:16:09.925Z,47.62
2018-08-28T13:17:09.824Z,47.91
2018-08-28T13:19:02.537Z,48.71
2018-08-28T13:20:02.418Z,48.79
2018-08-28T13:21:55.268Z,48.88
2018-08-28T13:22:55.009Z,47.94
2018-08-28T13:24:47.717Z,46.58
2018-08-28T13:25:47.617Z,47.16
2018-08-28T13:27:40.286Z,47.64
2018-08-28T13:28:40.190Z,47.84
2018-08-28T13:30:32.900Z,47.52
2018-08-28T13:31:32.790Z,48.11
2018-08-28T13:33:25.473Z,48.22
2018-08-28T13:34:25.377Z,47.45
2018-08-28T13:36:18.112Z,47.06
2018-08-28T13:37:18.001Z,47.74
2018-08-28T13:39:10.682Z,47.64
2018-08-28T13:40:10.589Z,47.26
2018-08-28T13:42:03.288Z,48.42
2018-08-28T13:43:03.176Z,47.64
2018-08-28T13:44:55.885Z,46.80
2018-08-28T13:45:55.764Z,46.72
2018-08-28T13:47:48.456Z,47.28
2018-08-28T13:48:48.353Z,46.99
2018-08-28T13:50:41.058Z,46.80
2018-08-28T13:51:40.944Z,47.09
2018-08-28T13:53:33.745Z,46.99
2018-08-28T13:54:33.538Z,47.38
2018-08-28T13:56:26.245Z,47.19
2018-08-28T13:57:26.134Z,47.38
2018-08-28T13:59:18.824Z,46.70
2018-08-28T14:00:18.728Z,47.19
2018-08-28T14:02:11.441Z,47.45
2018-08-28T14:03:11.323Z,47.26
2018-08-28T14:05:04.020Z,47.94
2018-08-28T14:06:03.918Z,48.03
2018-08-28T14:07:56.626Z,47.55
2018-08-28T14:08:56.526Z,47.74
2018-08-28T14:10:49.208Z,46.39
2018-08-28T14:11:49.105Z,46.67
2018-08-28T14:13:41.819Z,47.28
2018-08-28T14:14:41.787Z,46.89
2018-08-28T14:16:34.388Z,45.47
2018-08-28T14:17:34.284Z,45.83
2018-08-28T14:19:26.990Z,45.54
2018-08-28T14:20:26.873Z,45.92
2018-08-28T14:22:19.622Z,46.89
2018-08-28T14:23:19.466Z,46.22
2018-08-28T14:25:12.185Z,46.58
2018-08-28T14:26:12.067Z,46.80
2018-08-28T14:28:04.750Z,46.51
2018-08-28T14:29:04.786Z,46.41
2018-08-28T14:30:57.367Z,46.89
2018-08-28T14:31:57.254Z,46.12
2018-08-28T14:33:49.950Z,47.26
2018-08-28T14:34:49.855Z,47.74
2018-08-28T14:36:42.569Z,47.36
2018-08-28T14:37:42.441Z,47.81
2018-08-28T14:39:35.160Z,48.69
2018-08-28T14:40:35.033Z,49.37
2018-08-28T14:42:27.732Z,48.39
2018-08-28T14:43:27.637Z,48.39
2018-08-28T14:45:20.326Z,48.20
2018-08-28T14:46:20.213Z,47.62
2018-08-28T14:48:12.923Z,48.01
2018-08-28T14:49:12.825Z,48.20
2018-08-28T14:51:05.522Z,48.49
2018-08-28T14:52:05.409Z,48.95
2018-08-28T14:53:58.102Z,48.39
2018-08-28T14:54:57.994Z,48.95
2018-08-28T14:56:50.817Z,48.69
2018-08-28T14:57:50.584Z,48.79
2018-08-28T14:59:43.281Z,49.37
2018-08-28T15:00:43.176Z,49.68
2018-08-28T15:02:35.882Z,48.32
2018-08-28T15:03:35.767Z,47.81
2018-08-28T15:05:28.454Z,47.72
2018-08-28T15:06:28.605Z,48.01
2018-08-28T15:08:21.085Z,48.20
2018-08-28T15:09:20.957Z,48.11
2018-08-28T15:11:13.674Z,48.08
2018-08-28T15:12:13.553Z,47.89
2018-08-28T15:14:06.260Z,47.60
2018-08-28T15:15:06.147Z,47.89
2018-08-28T15:16:58.829Z,47.69
2018-08-28T15:17:58.729Z,48.01
2018-08-28T15:19:51.445Z,47.72
2018-08-28T15:20:51.347Z,47.72
2018-08-28T15:22:44.237Z,47.94
2018-08-28T15:23:43.920Z,47.26
2018-08-28T15:25:36.621Z,47.64
2018-08-28T15:26:36.503Z,46.67
2018-08-28T15:28:29.341Z,46.67
2018-08-28T15:29:29.093Z,46.87
2018-08-28T15:31:21.800Z,47.16
2018-08-28T15:32:21.692Z,46.87
2018-08-28T15:34:14.373Z,47.45
2018-08-28T15:35:14.381Z,46.84
2018-08-28T15:37:06.974Z,47.91
2018-08-28T15:38:06.867Z,47.62
2018-08-28T15:39:59.563Z,47.62
2018-08-28T15:40:59.453Z,48.27
2018-08-28T15:42:52.185Z,49.15
2018-08-28T15:43:52.383Z,49.41
2018-08-28T15:45:44.724Z,49.73
2018-08-28T15:46:44.626Z,49.44
2018-08-28T15:48:37.327Z,49.63
2018-08-28T15:49:37.212Z,49.73
2018-08-28T15:51:30.146Z,49.63
2018-08-28T15:52:29.792Z,49.54
2018-08-28T15:54:22.489Z,50.38
2018-08-28T15:55:22.386Z,49.73
2018-08-28T15:57:15.089Z,50.48
2018-08-28T15:58:14.972Z,50.28
2018-08-28T16:00:07.656Z,50.31
2018-08-28T16:01:07.560Z,50.70
2018-08-28T16:03:00.262Z,49.44
2018-08-28T16:04:00.145Z,49.24
2018-08-28T16:05:52.835Z,49.73
2018-08-28T16:06:52.737Z,49.54
2018-08-28T16:08:45.440Z,49.73
2018-08-28T16:09:45.323Z,49.54
2018-08-28T16:11:38.010Z,49.22
2018-08-28T16:12:37.912Z,49.54
2018-08-28T16:14:30.619Z,49.51
2018-08-28T16:15:30.494Z,49.22
2018-08-28T16:17:23.333Z,49.51
2018-08-28T16:18:23.080Z,49.60
2018-08-28T16:20:15.789Z,49.68
2018-08-28T16:21:15.669Z,49.68
2018-08-28T16:23:08.349Z,50.45
2018-08-28T16:24:08.249Z,49.58
2018-08-28T16:26:00.958Z,50.65
2018-08-28T16:27:00.833Z,50.16
2018-08-28T16:28:53.549Z,50.07
2018-08-28T16:29:53.457Z,51.03
2018-08-28T16:31:46.129Z,52.45
2018-08-28T16:32:46.015Z,52.26
2018-08-28T16:34:38.699Z,52.26
2018-08-28T16:35:38.627Z,52.84
2018-08-28T16:37:31.800Z,53.13
2018-08-28T16:38:31.679Z,53.33
2018-08-28T16:40:24.372Z,53.13
2018-08-28T16:41:24.264Z,53.23
2018-08-28T16:43:16.971Z,53.71
2018-08-28T16:44:16.854Z,53.13
2018-08-28T16:46:09.536Z,54.27
2018-08-28T16:47:09.437Z,53.97
2018-08-28T16:49:02.147Z,54.94
2018-08-28T16:50:02.131Z,55.13
2018-08-28T16:51:54.722Z,55.13
2018-08-28T16:52:54.623Z,55.04
2018-08-28T16:54:47.326Z,55.52
2018-08-28T16:55:47.210Z,55.90
2018-08-28T16:57:39.888Z,55.42
2018-08-28T16:58:39.785Z,55.90
2018-08-28T17:00:32.504Z,56.00
2018-08-28T17:01:32.519Z,56.39
2018-08-28T17:03:25.074Z,56.16
2018-08-28T17:04:24.976Z,55.13
2018-08-28T17:06:17.683Z,54.36
2018-08-28T17:07:17.604Z,54.17
2018-08-28T17:09:10.251Z,54.07
2018-08-28T17:10:10.466Z,54.46
2018-08-28T17:12:02.848Z,55.20
2018-08-28T17:13:02.728Z,55.59
2018-08-28T17:14:55.467Z,56.16
2018-08-28T17:15:55.307Z,56.46
2018-08-28T17:17:48.015Z,56.46
2018-08-28T17:18:47.895Z,56.46
2018-08-28T17:20:40.635Z,57.04
2018-08-28T17:21:40.576Z,57.32
2018-08-28T17:23:33.237Z,56.94
2018-08-28T17:24:33.150Z,57.23
2018-08-28T17:26:25.852Z,57.32
2018-08-28T17:27:25.749Z,57.42
2018-08-28T17:29:18.458Z,57.52
2018-08-28T17:30:18.344Z,57.32
2018-08-28T17:32:11.031Z,57.87
2018-08-28T17:33:10.980Z,58.07
2018-08-28T17:35:03.629Z,58.26
2018-08-28T17:36:03.510Z,58.26
2018-08-28T17:37:56.196Z,59.71
2018-08-28T17:38:56.085Z,60.00
2018-08-28T17:40:48.788Z,59.48
2018-08-28T17:41:48.670Z,59.30
2018-08-28T17:43:41.355Z,59.30
2018-08-28T17:44:41.255Z,59.48
2018-08-28T17:46:33.959Z,59.68
2018-08-28T17:47:33.840Z,59.87
2018-08-28T17:49:26.521Z,60.80
2018-08-28T17:50:26.430Z,60.74
2018-08-28T17:52:19.121Z,61.10
2018-08-28T17:53:19.001Z,61.19
2018-08-28T17:55:11.705Z,61.29
2018-08-28T17:56:11.581Z,61.48
2018-08-28T17:58:04.268Z,61.38
2018-08-28T17:59:04.171Z,61.77
2018-08-28T18:00:56.867Z,61.68
2018-08-28T18:01:56.751Z,61.68
2018-08-28T18:03:49.470Z,62.60
2018-08-28T18:04:49.326Z,62.99
2018-08-28T18:06:42.024Z,63.09
2018-08-28T18:07:41.907Z,63.85
2018-08-28T18:09:34.735Z,63.67
2018-08-28T18:10:34.552Z,63.67
2018-08-28T18:12:27.191Z,64.15
2018-08-28T18:13:27.063Z,64.34
2018-08-28T18:15:19.757Z,64.50
2018-08-28T18:16:19.688Z,65.17
2018-08-28T18:18:12.348Z,65.27
2018-08-28T18:19:12.233Z,65.56
2018-08-28T18:21:04.920Z,65.94
2018-08-28T18:22:04.822Z,65.56
2018-08-28T18:23:57.516Z,66.81
2018-08-28T18:24:57.394Z,66.91
2018-08-28T18:26:50.083Z,66.81
2018-08-28T18:27:49.975Z,66.78
2018-08-28T18:29:42.686Z,65.72
2018-08-28T18:30:42.563Z,66.10
2018-08-28T18:32:35.242Z,66.39
2018-08-28T18:33:35.136Z,66.68
2018-08-28T18:35:27.836Z,67.07
2018-08-28T18:36:27.714Z,67.65
2018-08-28T18:38:20.407Z,68.51
2018-08-28T18:39:20.299Z,68.32
2018-08-28T18:41:13.037Z,67.71
2018-08-28T18:42:12.892Z,67.99
2018-08-28T18:44:05.567Z,68.19
2018-08-28T18:45:05.470Z,67.99
2018-08-28T18:46:58.183Z,68.19
2018-08-28T18:47:58.046Z,68.57
2018-08-28T18:49:50.733Z,68.29
2018-08-28T18:50:50.637Z,68.67
2018-08-28T18:52:43.345Z,68.76
2018-08-28T18:53:43.226Z,68.86
2018-08-28T18:55:35.891Z,69.15
2018-08-28T18:56:35.788Z,69.44
2018-08-28T18:58:28.483Z,69.44
2018-08-28T18:59:28.359Z,69.40
2018-08-28T19:01:21.041Z,70.07
2018-08-28T19:02:20.941Z,70.94
2018-08-28T19:04:13.653Z,70.17
2018-08-28T19:05:13.527Z,69.79
2018-08-28T19:07:06.233Z,70.46
2018-08-28T19:08:06.108Z,70.84
2018-08-28T19:09:58.937Z,70.46
2018-08-28T19:10:58.710Z,70.84
2018-08-28T19:12:51.389Z,71.04
2018-08-28T19:13:51.261Z,71.71
2018-08-28T19:15:43.941Z,71.33
2018-08-28T19:16:43.840Z,71.91
2018-08-28T19:18:36.545Z,71.52
2018-08-28T19:19:36.420Z,71.87
2018-08-28T19:21:29.122Z,72.19
2018-08-28T19:22:29.019Z,72.25
2018-08-28T19:24:21.710Z,72.38
2018-08-28T19:25:21.626Z,72.19
2018-08-28T19:27:14.279Z,72.96
2018-08-28T19:28:14.172Z,73.11
2018-08-28T19:30:06.872Z,73.21
2018-08-28T19:31:06.758Z,73.11
2018-08-28T19:32:59.430Z,73.02
2018-08-28T19:33:59.325Z,73.11
2018-08-28T19:35:52.027Z,73.31
2018-08-28T19:36:51.905Z,73.60
2018-08-28T19:38:44.595Z,73.60
2018-08-28T19:39:44.485Z,74.17
2018-08-28T19:41:37.180Z,74.43
2018-08-28T19:42:37.070Z,73.75
2018-08-28T19:44:29.746Z,73.98
2018-08-28T19:45:29.639Z,74.33
2018-08-28T19:47:22.353Z,74.52
2018-08-28T19:48:22.223Z,74.13
2018-08-28T19:50:14.904Z,74.33
2018-08-28T19:51:14.831Z,74.52
2018-08-28T19:53:07.502Z,74.71
2018-08-28T19:54:07.389Z,74.62
2018-08-28T19:56:00.094Z,74.90
2018-08-28T19:57:00.052Z,74.33
2018-08-28T19:58:53.151Z,74.81
2018-08-28T19:59:52.540Z,74.71
2018-08-28T20:01:45.253Z,74.52
2018-08-28T20:02:45.121Z,75.20
2018-08-28T20:04:37.929Z,75.20
2018-08-28T20:05:37.745Z,75.87
2018-08-28T20:07:30.423Z,75.48
2018-08-28T20:08:30.310Z,76.06
2018-08-28T20:10:22.976Z,76.15
2018-08-28T20:11:22.889Z,75.96
2018-08-28T20:13:15.579Z,76.02
2018-08-28T20:14:15.449Z,75.96
2018-08-28T20:16:08.271Z,76.02
2018-08-28T20:17:08.195Z,75.35
2018-08-28T20:19:00.720Z,75.92
2018-08-28T20:20:00.599Z,75.82
2018-08-28T20:21:53.278Z,76.40
2018-08-28T20:22:53.173Z,76.69
2018-08-28T20:24:45.877Z,76.69
2018-08-28T20:25:45.743Z,76.50
2018-08-28T20:27:38.424Z,77.17
2018-08-28T20:28:38.329Z,77.17
2018-08-28T20:30:31.036Z,76.59
2018-08-28T20:31:30.915Z,76.50
2018-08-28T20:33:23.608Z,76.59
2018-08-28T20:34:23.499Z,76.59
2018-08-28T20:36:16.192Z,76.50
2018-08-28T20:37:16.106Z,76.69
2018-08-28T20:39:08.798Z,76.50
2018-08-28T20:40:08.695Z,76.59
2018-08-28T20:42:01.396Z,76.69
2018-08-28T20:43:01.277Z,77.23
2018-08-28T20:44:54.028Z,77.08
2018-08-28T20:45:53.868Z,76.84
2018-08-28T20:47:46.624Z,77.13
2018-08-28T20:48:46.430Z,77.61
2018-08-28T20:50:39.116Z,77.80
2018-08-28T20:51:39.016Z,77.80
2018-08-28T20:53:31.926Z,78.09
2018-08-28T20:54:31.617Z,78.19
2018-08-28T20:56:24.354Z,78.09
2018-08-28T20:57:24.427Z,78.38
2018-08-28T20:59:17.015Z,78.09
2018-08-28T21:00:16.813Z,78.00
2018-08-28T21:02:09.491Z,77.90
2018-08-28T21:03:09.379Z,78.28
2018-08-28T21:05:02.089Z,78.28
2018-08-28T21:06:01.969Z,78.38
2018-08-28T21:07:54.801Z,78.67
2018-08-28T21:08:54.538Z,78.47
2018-08-28T21:10:47.229Z,78.38
2018-08-28T21:11:47.101Z,78.38
2018-08-28T21:13:39.792Z,79.34
2018-08-28T21:14:39.681Z,79.34
2018-08-28T21:16:32.372Z,78.86
2018-08-28T21:17:32.260Z,78.57
2018-08-28T21:19:24.957Z,78.67
2018-08-28T21:20:24.823Z,79.05
2018-08-28T21:22:17.505Z,79.24
2018-08-28T21:23:17.403Z,79.05
2018-08-28T21:25:10.094Z,78.86
2018-08-28T21:26:09.975Z,79.24
2018-08-28T21:28:02.646Z,79.14
2018-08-28T21:29:02.640Z,78.96
2018-08-28T21:30:55.235Z,78.92
2018-08-28T21:31:55.119Z,79.68
2018-08-28T21:33:47.788Z,79.30
2018-08-28T21:34:47.682Z,79.59
2018-08-28T21:36:40.381Z,79.59
2018-08-28T21:37:40.257Z,79.21
2018-08-28T21:39:32.934Z,79.78
2018-08-28T21:40:32.825Z,79.11
2018-08-28T21:42:25.517Z,79.11
2018-08-28T21:43:25.397Z,79.21
2018-08-28T21:45:18.074Z,79.68
2018-08-28T21:46:17.971Z,79.68
2018-08-28T21:48:10.673Z,79.68
2018-08-28T21:49:10.538Z,79.88
2018-08-28T21:51:03.218Z,80.16
2018-08-28T21:52:03.110Z,80.16
2018-08-28T21:53:55.808Z,80.35
2018-08-28T21:54:55.685Z,80.55
2018-08-28T21:56:48.363Z,80.16
2018-08-28T21:57:48.258Z,80.12
2018-08-28T21:59:40.956Z,80.26
